createdAt,value
2019-01-26T00:01:55.053Z,6.30
2019-01-26T00:04:25.246Z,2.07
2019-01-26T00:06:55.470Z,2.33
2019-01-26T00:09:25.662Z,2.47
2019-01-26T00:11:55.991Z,2.57
2019-01-26T00:14:26.957Z,2.73
2019-01-26T00:16:57.281Z,2.00
2019-01-26T00:19:27.471Z,2.23
2019-01-26T00:21:57.692Z,4.93
2019-01-26T00:24:27.962Z,4.40
2019-01-26T00:26:58.494Z,3.13
2019-01-26T00:29:28.917Z,4.13
2019-01-26T00:31:59.366Z,2.73
2019-01-26T00:34:29.550Z,3.20
2019-01-26T00:36:59.766Z,2.20
2019-01-26T00:39:29.950Z,2.13
2019-01-26T00:42:00.161Z,3.97
2019-01-26T00:44:30.622Z,2.03
2019-01-26T00:47:00.798Z,2.73
2019-01-26T00:49:31.016Z,3.53
2019-01-26T00:52:01.230Z,2.70
2019-01-26T00:54:31.418Z,3.80
2019-01-26T00:57:01.906Z,2.43
2019-01-26T00:59:32.122Z,2.70
2019-01-26T01:02:02.346Z,2.23
2019-01-26T01:04:32.567Z,2.50
2019-01-26T01:07:02.755Z,2.37
2019-01-26T01:09:32.969Z,2.67
2019-01-26T01:12:03.464Z,3.10
2019-01-26T01:14:33.710Z,3.20
2019-01-26T01:17:03.893Z,2.80
2019-01-26T01:19:34.347Z,4.43
2019-01-26T01:22:04.603Z,2.00
2019-01-26T01:24:34.806Z,1.70
2019-01-26T01:27:05.063Z,2.57
2019-01-26T01:29:35.282Z,3.63
2019-01-26T01:32:05.715Z,2.47
2019-01-26T01:34:35.934Z,4.90
2019-01-26T01:37:06.190Z,4.00
2019-01-26T01:39:36.393Z,2.93
2019-01-26T01:42:06.585Z,2.80
2019-01-26T01:44:37.030Z,2.20
2019-01-26T01:47:07.226Z,2.00
2019-01-26T01:49:37.443Z,2.00
2019-01-26T01:52:07.638Z,2.40
2019-01-26T01:54:37.861Z,1.90
2019-01-26T01:57:08.286Z,3.17
2019-01-26T01:59:38.510Z,2.60
2019-01-26T02:02:08.806Z,2.33
2019-01-26T02:04:38.986Z,2.93
2019-01-26T02:07:09.198Z,2.47
2019-01-26T02:09:39.406Z,3.53
2019-01-26T02:12:09.855Z,2.83
2019-01-26T02:14:40.057Z,2.90
2019-01-26T02:17:10.269Z,5.47
2019-01-26T02:19:40.699Z,2.03
2019-01-26T02:22:10.994Z,2.70
2019-01-26T02:24:41.173Z,4.70
2019-01-26T02:27:11.390Z,2.77
2019-01-26T02:29:41.819Z,2.37
2019-01-26T02:32:12.031Z,3.83
2019-01-26T02:34:42.219Z,2.77
2019-01-26T02:37:12.425Z,2.23
2019-01-26T02:39:42.647Z,3.27
2019-01-26T02:42:12.853Z,2.40
2019-01-26T02:44:43.069Z,1.90
2019-01-26T02:47:13.522Z,4.27
2019-01-26T02:49:43.978Z,2.33
2019-01-26T02:52:14.157Z,4.40
2019-01-26T02:54:44.384Z,1.67
2019-01-26T02:57:14.809Z,1.77
2019-01-26T02:59:45.034Z,2.53
2019-01-26T03:02:15.213Z,2.00
2019-01-26T03:04:45.671Z,1.83
2019-01-26T03:07:15.863Z,4.57
2019-01-26T03:09:46.320Z,2.13
2019-01-26T03:12:16.501Z,2.57
2019-01-26T03:14:46.711Z,5.63
2019-01-26T03:17:16.987Z,1.93
2019-01-26T03:19:47.197Z,3.60
2019-01-26T03:22:17.386Z,2.47
2019-01-26T03:24:47.625Z,2.23
2019-01-26T03:27:18.066Z,2.27
2019-01-26T03:29:48.280Z,4.93
2019-01-26T03:32:18.593Z,2.57
2019-01-26T03:34:48.878Z,3.50
2019-01-26T03:37:19.326Z,3.07
2019-01-26T03:39:49.792Z,1.80
2019-01-26T03:42:20.213Z,2.63
2019-01-26T03:44:50.444Z,2.20
2019-01-26T03:47:20.654Z,2.87
2019-01-26T03:49:50.858Z,3.23
2019-01-26T03:52:21.062Z,3.67
2019-01-26T03:54:51.258Z,3.43
2019-01-26T03:57:21.467Z,3.57
2019-01-26T03:59:51.703Z,4.20
2019-01-26T04:02:22.138Z,5.17
2019-01-26T04:04:52.442Z,5.17
2019-01-26T04:07:22.876Z,5.67
2019-01-26T04:09:53.098Z,4.47
2019-01-26T04:12:23.274Z,6.17
2019-01-26T04:14:53.484Z,3.53
2019-01-26T04:17:23.762Z,4.40
2019-01-26T04:19:54.191Z,3.93
2019-01-26T04:22:24.406Z,5.10
2019-01-26T04:24:54.596Z,4.73
2019-01-26T04:27:24.801Z,3.37
2019-01-26T04:29:55.249Z,3.07
2019-01-26T04:32:25.458Z,5.57
2019-01-26T04:34:55.678Z,4.10
2019-01-26T04:37:26.101Z,4.17
2019-01-26T04:39:56.319Z,5.37
2019-01-26T04:42:28.618Z,8.03
2019-01-26T04:44:58.827Z,5.73
2019-01-26T04:47:31.048Z,5.43
2019-01-26T04:50:00.932Z,6.43
2019-01-26T04:52:31.347Z,7.50
2019-01-26T04:55:01.572Z,7.23
2019-01-26T04:57:31.795Z,6.67
2019-01-26T05:00:02.018Z,13.43
2019-01-26T05:02:32.534Z,11.10
2019-01-26T05:05:02.819Z,10.10
2019-01-26T05:07:33.049Z,13.77
2019-01-26T05:10:03.646Z,14.03
2019-01-26T05:12:33.849Z,16.67
2019-01-26T05:15:06.570Z,11.13
2019-01-26T05:17:39.570Z,10.73
2019-01-26T05:20:14.342Z,14.40
2019-01-26T05:22:44.607Z,13.67
2019-01-26T05:25:14.830Z,15.00
2019-01-26T05:27:45.019Z,13.27
2019-01-26T05:30:23.491Z,12.77
2019-01-26T05:32:53.686Z,14.47
2019-01-26T05:35:23.898Z,15.40
2019-01-26T05:37:54.185Z,15.23
2019-01-26T05:40:24.618Z,15.87
2019-01-26T05:42:55.073Z,16.03
2019-01-26T05:45:25.414Z,16.00
2019-01-26T05:47:55.855Z,12.77
2019-01-26T05:50:26.221Z,17.33
2019-01-26T05:52:56.473Z,15.50
2019-01-26T05:55:26.709Z,13.87
2019-01-26T05:57:57.133Z,14.00
2019-01-26T06:00:29.334Z,15.67
2019-01-26T06:02:59.529Z,17.33
2019-01-26T06:05:29.759Z,12.83
2019-01-26T06:08:00.007Z,14.00
2019-01-26T06:10:30.230Z,16.20
2019-01-26T06:13:00.486Z,12.43
2019-01-26T06:15:30.714Z,15.40
2019-01-26T06:18:01.008Z,15.00
2019-01-26T06:20:31.438Z,16.80
2019-01-26T06:23:01.659Z,13.30
2019-01-26T06:25:31.946Z,16.07
2019-01-26T06:28:02.129Z,15.23
2019-01-26T06:30:32.346Z,16.23
2019-01-26T06:33:02.541Z,13.40
2019-01-26T06:35:32.765Z,16.63
2019-01-26T06:38:03.224Z,13.63
2019-01-26T06:40:33.444Z,15.20
2019-01-26T06:43:03.662Z,14.27
2019-01-26T06:45:33.863Z,13.27
2019-01-26T06:48:04.275Z,11.07
2019-01-26T06:50:34.737Z,13.50
2019-01-26T06:53:04.954Z,11.03
2019-01-26T06:55:35.218Z,10.37
2019-01-26T06:58:05.694Z,12.10
2019-01-26T07:00:36.131Z,12.90
2019-01-26T07:03:06.574Z,11.27
2019-01-26T07:05:47.319Z,13.30
2019-01-26T07:08:18.038Z,9.87
2019-01-26T07:10:48.302Z,12.97
2019-01-26T07:13:18.493Z,13.50
2019-01-26T07:15:48.677Z,7.93
2019-01-26T07:18:18.898Z,9.40
2019-01-26T07:20:49.462Z,9.67
2019-01-26T07:23:19.692Z,8.03
2019-01-26T07:25:49.889Z,8.77
2019-01-26T07:28:20.105Z,8.60
2019-01-26T07:30:50.306Z,8.67
2019-01-26T07:33:20.513Z,8.57
2019-01-26T07:35:50.964Z,8.13
2019-01-26T07:38:21.173Z,7.87
2019-01-26T07:40:51.402Z,5.20
2019-01-26T07:43:21.589Z,6.50
2019-01-26T07:45:51.822Z,8.87
2019-01-26T07:48:22.005Z,8.40
2019-01-26T07:50:52.239Z,5.87
2019-01-26T07:53:22.426Z,5.97
2019-01-26T07:55:52.650Z,6.93
2019-01-26T07:58:23.095Z,5.90
2019-01-26T08:00:53.318Z,8.77
2019-01-26T08:03:23.515Z,6.40
2019-01-26T08:05:53.742Z,8.30
2019-01-26T08:08:23.998Z,9.33
2019-01-26T08:10:54.457Z,11.90
2019-01-26T08:13:24.633Z,6.63
2019-01-26T08:15:54.850Z,6.13
2019-01-26T08:18:25.071Z,3.60
2019-01-26T08:20:55.293Z,3.27
2019-01-26T08:23:25.505Z,5.40
2019-01-26T08:25:55.951Z,6.27
2019-01-26T08:28:27.841Z,3.90
2019-01-26T08:30:58.138Z,2.90
2019-01-26T08:33:28.607Z,3.13
2019-01-26T08:36:01.705Z,3.03
2019-01-26T08:38:31.930Z,3.03
2019-01-26T08:41:02.498Z,5.00
2019-01-26T08:43:32.770Z,2.97
2019-01-26T08:46:03.271Z,5.70
2019-01-26T08:48:33.469Z,2.17
2019-01-26T08:51:03.849Z,3.23
2019-01-26T08:53:34.598Z,1.72
2019-01-26T08:56:04.886Z,4.13
2019-01-26T08:58:35.085Z,2.53
2019-01-26T09:01:05.445Z,1.80
2019-01-26T09:03:42.936Z,1.30
2019-01-26T09:06:14.797Z,1.70
2019-01-26T09:08:45.287Z,1.53
2019-01-26T09:11:15.726Z,2.17
2019-01-26T09:13:45.929Z,1.87
2019-01-26T09:16:16.755Z,2.33
2019-01-26T09:18:46.949Z,3.13
2019-01-26T09:21:17.175Z,1.67
2019-01-26T09:23:48.151Z,2.17
2019-01-26T09:26:19.159Z,2.58
2019-01-26T09:28:50.155Z,2.92
2019-01-26T09:31:20.994Z,1.55
2019-01-26T09:33:51.741Z,2.47
2019-01-26T09:36:22.777Z,3.27
2019-01-26T09:38:53.758Z,4.85
2019-01-26T09:41:24.958Z,2.40
2019-01-26T09:43:55.954Z,2.60
2019-01-26T09:46:26.809Z,3.75
2019-01-26T09:48:57.589Z,2.40
2019-01-26T09:51:28.371Z,2.55
2019-01-26T09:53:59.116Z,3.10
2019-01-26T09:56:30.134Z,2.35
2019-01-26T09:59:00.886Z,2.15
2019-01-26T10:01:31.690Z,2.98
2019-01-26T10:04:02.438Z,2.45
2019-01-26T10:06:33.214Z,2.27
2019-01-26T10:09:07.253Z,1.50
2019-01-26T10:11:38.159Z,4.42
2019-01-26T10:14:09.230Z,2.62
2019-01-26T10:16:40.246Z,3.05
2019-01-26T10:19:11.012Z,2.20
2019-01-26T10:21:42.031Z,1.92
2019-01-26T10:24:12.783Z,2.50
2019-01-26T10:26:43.561Z,2.15
2019-01-26T10:29:14.338Z,3.58
2019-01-26T10:31:45.119Z,2.35
2019-01-26T10:34:16.107Z,2.72
2019-01-26T10:36:48.524Z,2.33
2019-01-26T10:39:19.290Z,3.25
2019-01-26T10:41:51.959Z,2.90
2019-01-26T10:44:23.017Z,2.85
2019-01-26T10:46:53.761Z,2.72
2019-01-26T10:49:24.535Z,4.35
2019-01-26T10:51:55.281Z,4.55
2019-01-26T10:54:26.086Z,2.52
2019-01-26T10:56:56.820Z,4.78
2019-01-26T10:59:27.603Z,4.37
2019-01-26T11:01:58.349Z,3.52
2019-01-26T11:04:29.122Z,2.77
2019-01-26T11:07:00.025Z,3.75
2019-01-26T11:09:31.029Z,5.15
2019-01-26T11:12:01.870Z,3.37
2019-01-26T11:14:32.653Z,3.33
2019-01-26T11:17:03.665Z,3.10
2019-01-26T11:19:34.922Z,3.12
2019-01-26T11:22:05.789Z,4.17
2019-01-26T11:24:36.573Z,3.45
2019-01-26T11:27:07.625Z,5.37
2019-01-26T11:29:41.210Z,3.35
2019-01-26T11:32:12.155Z,4.00
2019-01-26T11:34:43.005Z,3.30
2019-01-26T11:37:13.785Z,3.12
2019-01-26T11:39:46.261Z,3.85
2019-01-26T11:42:17.005Z,3.45
2019-01-26T11:45:01.537Z,3.08
2019-01-26T11:47:32.358Z,5.50
2019-01-26T11:50:04.271Z,4.50
2019-01-26T11:52:35.063Z,3.25
2019-01-26T11:55:07.549Z,5.53
2019-01-26T11:57:38.301Z,2.47
2019-01-26T12:00:30.164Z,4.85
2019-01-26T12:03:04.003Z,4.15
2019-01-26T12:05:36.712Z,4.67
2019-01-26T12:08:07.743Z,4.62
2019-01-26T12:10:38.776Z,4.92
2019-01-26T12:13:09.602Z,6.03
2019-01-26T12:15:40.584Z,4.30
2019-01-26T12:18:11.362Z,5.47
2019-01-26T12:20:44.053Z,5.92
2019-01-26T12:23:14.905Z,4.62
2019-01-26T12:25:45.670Z,4.12
2019-01-26T12:28:16.459Z,4.20
2019-01-26T12:30:47.474Z,4.20
2019-01-26T12:33:18.225Z,5.05
2019-01-26T12:35:49.112Z,4.83
2019-01-26T12:38:19.855Z,3.98
2019-01-26T12:40:50.866Z,4.08
2019-01-26T12:43:21.650Z,4.42
2019-01-26T12:45:52.433Z,3.27
2019-01-26T12:48:23.251Z,2.77
2019-01-26T12:50:54.031Z,3.70
2019-01-26T12:53:24.787Z,3.47
2019-01-26T12:55:55.565Z,3.52
2019-01-26T12:58:26.341Z,2.55
2019-01-26T13:00:57.139Z,2.85
2019-01-26T13:03:27.886Z,2.33
2019-01-26T13:05:58.915Z,2.20
2019-01-26T13:08:29.965Z,1.57
2019-01-26T13:11:06.813Z,2.15
2019-01-26T13:13:37.562Z,2.00
2019-01-26T13:16:08.657Z,2.05
2019-01-26T13:18:39.495Z,2.00
2019-01-26T13:21:10.337Z,2.02
2019-01-26T13:23:41.281Z,2.22
2019-01-26T13:26:12.250Z,2.70
2019-01-26T13:28:43.265Z,4.97
2019-01-26T13:31:14.147Z,2.45
2019-01-26T13:33:45.224Z,3.17
2019-01-26T13:36:17.532Z,2.67
2019-01-26T13:38:48.385Z,5.45
2019-01-26T13:41:19.131Z,5.03
2019-01-26T13:43:49.911Z,4.53
2019-01-26T13:46:20.692Z,3.08
2019-01-26T13:48:51.573Z,3.52
2019-01-26T13:51:23.196Z,2.12
2019-01-26T13:53:54.033Z,2.52
2019-01-26T13:56:25.311Z,2.98
2019-01-26T13:58:57.567Z,3.70
2019-01-26T14:01:31.190Z,1.82
2019-01-26T14:04:02.065Z,2.17
2019-01-26T14:06:35.980Z,3.10
2019-01-26T14:09:07.882Z,1.98
2019-01-26T14:11:38.788Z,1.87
2019-01-26T14:14:09.614Z,2.98
2019-01-26T14:16:41.257Z,3.83
2019-01-26T14:19:12.460Z,1.85
2019-01-26T14:21:43.678Z,2.42
2019-01-26T14:24:14.491Z,2.12
2019-01-26T14:26:49.802Z,3.10
2019-01-26T14:29:19.957Z,2.27
2019-01-26T14:31:51.069Z,1.27
2019-01-26T14:34:21.861Z,1.55
2019-01-26T14:36:52.803Z,3.12
2019-01-26T14:39:23.651Z,3.10
2019-01-26T14:41:54.444Z,2.58
2019-01-26T14:44:25.225Z,1.25
2019-01-26T14:46:56.003Z,1.42
2019-01-26T14:49:26.867Z,1.40
2019-01-26T14:51:57.715Z,2.15
2019-01-26T14:54:28.457Z,3.08
2019-01-26T14:56:59.268Z,3.45
2019-01-26T14:59:30.108Z,2.17
2019-01-26T15:02:00.964Z,1.52
2019-01-26T15:04:31.793Z,1.42
2019-01-26T15:07:02.572Z,1.37
2019-01-26T15:09:33.325Z,1.90
2019-01-26T15:12:04.166Z,1.52
2019-01-26T15:14:34.919Z,1.60
2019-01-26T15:17:05.760Z,1.22
2019-01-26T15:19:36.515Z,1.90
2019-01-26T15:22:07.289Z,3.05
2019-01-26T15:24:38.278Z,1.10
2019-01-26T15:27:09.363Z,1.40
2019-01-26T15:29:40.182Z,1.92
2019-01-26T15:32:10.970Z,2.00
2019-01-26T15:34:41.798Z,2.72
2019-01-26T15:37:12.567Z,1.47
2019-01-26T15:39:43.564Z,3.30
2019-01-26T15:42:14.365Z,3.00
2019-01-26T15:44:45.106Z,2.00
2019-01-26T15:47:15.882Z,2.15
2019-01-26T15:49:46.647Z,2.20
2019-01-26T15:52:17.667Z,2.30
2019-01-26T15:54:48.416Z,3.47
2019-01-26T15:57:19.426Z,4.72
2019-01-26T15:59:53.493Z,24.35
2019-01-26T16:02:22.914Z,9.80
2019-01-26T16:04:53.708Z,2.10
2019-01-26T16:07:24.460Z,2.77
2019-01-26T16:09:55.231Z,2.58
2019-01-26T16:12:26.031Z,6.00
2019-01-26T16:14:56.784Z,2.80
2019-01-26T16:17:27.794Z,1.98
2019-01-26T16:19:58.563Z,2.45
2019-01-26T16:22:29.489Z,2.95
2019-01-26T16:25:00.507Z,2.20
2019-01-26T16:27:31.270Z,3.42
2019-01-26T16:30:02.066Z,4.53
2019-01-26T16:32:34.828Z,2.33
2019-01-26T16:35:08.738Z,2.67
2019-01-26T16:37:40.786Z,3.70
2019-01-26T16:40:15.195Z,3.47
2019-01-26T16:42:46.191Z,2.87
2019-01-26T16:45:22.343Z,4.47
2019-01-26T16:47:53.330Z,2.77
2019-01-26T16:50:27.726Z,3.05
2019-01-26T16:52:58.917Z,3.33
2019-01-26T16:55:29.982Z,3.12
2019-01-26T16:58:03.890Z,2.80
2019-01-26T17:00:40.434Z,3.67
2019-01-26T17:03:11.263Z,2.15
2019-01-26T17:05:42.176Z,2.87
2019-01-26T17:08:12.436Z,3.50
2019-01-26T17:10:42.986Z,2.17
2019-01-26T17:13:14.141Z,3.58
2019-01-26T17:15:44.435Z,5.63
2019-01-26T17:18:15.646Z,3.42
2019-01-26T17:20:47.442Z,3.27
2019-01-26T17:23:19.016Z,3.95
2019-01-26T17:25:49.800Z,3.47
2019-01-26T17:28:20.625Z,2.55
2019-01-26T17:30:51.142Z,3.23
2019-01-26T17:33:21.352Z,3.73
2019-01-26T17:35:52.093Z,3.12
2019-01-26T17:38:23.114Z,2.83
2019-01-26T17:40:54.720Z,3.15
2019-01-26T17:43:25.985Z,4.40
2019-01-26T17:45:56.165Z,3.67
2019-01-26T17:48:26.387Z,3.40
2019-01-26T17:50:57.371Z,2.98
2019-01-26T17:53:27.580Z,3.93
2019-01-26T17:55:57.771Z,3.20
2019-01-26T17:58:28.560Z,2.90
2019-01-26T18:00:58.739Z,2.62
2019-01-26T18:03:28.958Z,3.23
2019-01-26T18:05:59.713Z,3.50
2019-01-26T18:08:30.179Z,3.23
2019-01-26T18:11:01.186Z,3.33
2019-01-26T18:13:31.409Z,3.30
2019-01-26T18:16:01.601Z,2.97
2019-01-26T18:18:31.841Z,3.23
2019-01-26T18:21:02.267Z,3.03
2019-01-26T18:23:33.278Z,4.72
2019-01-26T18:26:04.219Z,5.00
2019-01-26T18:28:34.678Z,3.13
2019-01-26T18:31:05.206Z,3.57
2019-01-26T18:33:35.758Z,3.17
2019-01-26T18:36:06.302Z,2.47
2019-01-26T18:38:37.175Z,2.27
2019-01-26T18:41:07.633Z,2.43
2019-01-26T18:43:37.850Z,2.40
2019-01-26T18:46:08.074Z,2.63
2019-01-26T18:48:38.257Z,2.03
2019-01-26T18:51:08.657Z,2.93
2019-01-26T18:53:38.841Z,1.90
2019-01-26T18:56:09.051Z,2.73
2019-01-26T18:58:39.352Z,2.87
2019-01-26T19:01:10.097Z,2.00
2019-01-26T19:03:52.698Z,3.20
2019-01-26T19:06:22.914Z,2.30
2019-01-26T19:08:53.117Z,2.30
2019-01-26T19:11:23.320Z,1.93
2019-01-26T19:13:53.537Z,1.60
2019-01-26T19:16:23.851Z,2.20
2019-01-26T19:18:54.096Z,3.20
2019-01-26T19:36:10.102Z,3.07
2019-01-26T19:38:57.198Z,1.73
2019-01-26T19:41:27.417Z,1.83
2019-01-26T19:43:57.636Z,1.90
2019-01-26T19:46:28.126Z,1.33
2019-01-26T19:48:58.592Z,1.63
2019-01-26T19:51:29.047Z,2.07
2019-01-26T19:53:59.254Z,1.70
2019-01-26T19:56:29.469Z,1.47
2019-01-26T19:58:59.695Z,3.67
2019-01-26T20:01:29.874Z,1.80
2019-01-26T20:04:00.398Z,1.63
2019-01-26T20:06:30.818Z,1.77
2019-01-26T20:09:01.059Z,1.50
2019-01-26T20:11:33.575Z,2.08
2019-01-26T20:14:04.141Z,2.13
2019-01-26T20:16:36.458Z,1.93
2019-01-26T20:19:06.495Z,2.17
2019-01-26T20:21:36.720Z,1.67
2019-01-26T20:24:06.891Z,1.57
2019-01-26T20:26:37.382Z,1.80
2019-01-26T20:29:07.694Z,2.27
2019-01-26T20:31:37.923Z,2.00
2019-01-26T20:34:08.227Z,1.63
2019-01-26T20:36:38.441Z,1.83
2019-01-26T20:39:09.227Z,2.00
2019-01-26T20:41:39.746Z,2.40
2019-01-26T20:44:09.942Z,2.10
2019-01-26T20:46:40.183Z,2.33
2019-01-26T20:49:10.453Z,2.37
2019-01-26T20:51:40.699Z,2.77
2019-01-26T20:54:11.123Z,1.43
2019-01-26T20:56:41.353Z,4.43
2019-01-26T20:59:11.675Z,1.80
2019-01-26T21:01:41.917Z,1.80
2019-01-26T21:04:12.384Z,3.63
2019-01-26T21:06:42.748Z,1.93
2019-01-26T21:09:12.994Z,1.80
2019-01-26T21:11:43.224Z,2.20
2019-01-26T21:14:13.467Z,1.90
2019-01-26T21:16:43.929Z,2.23
2019-01-26T21:19:14.141Z,3.13
2019-01-26T21:21:44.599Z,2.03
2019-01-26T21:24:15.020Z,1.67
2019-01-26T21:26:45.293Z,1.97
2019-01-26T21:29:15.550Z,1.93
2019-01-26T21:31:45.836Z,2.13
2019-01-26T21:34:16.039Z,2.90
2019-01-26T21:36:46.316Z,1.50
2019-01-26T21:39:16.530Z,1.60
2019-01-26T21:41:46.739Z,2.10
2019-01-26T21:44:17.175Z,2.50
2019-01-26T21:46:47.602Z,3.57
2019-01-26T21:49:18.623Z,1.70
2019-01-26T21:51:49.087Z,1.90
2019-01-26T21:54:19.896Z,2.08
2019-01-26T21:56:50.343Z,1.50
2019-01-26T21:59:20.811Z,1.60
2019-01-26T22:01:51.004Z,1.90
2019-01-26T22:04:21.241Z,1.42
2019-01-26T22:06:51.717Z,3.00
2019-01-26T22:09:21.983Z,2.13
2019-01-26T22:11:52.441Z,1.70
2019-01-26T22:14:23.502Z,2.02
2019-01-26T22:16:54.352Z,1.62
2019-01-26T22:19:24.610Z,1.32
2019-01-26T22:21:55.066Z,1.37
2019-01-26T22:24:25.818Z,1.27
2019-01-26T22:26:56.334Z,1.60
2019-01-26T22:29:31.177Z,1.52
2019-01-26T22:32:01.375Z,1.20
2019-01-26T22:34:34.936Z,1.45
2019-01-26T22:37:05.417Z,1.37
2019-01-26T22:39:36.190Z,1.20
2019-01-26T22:42:07.158Z,0.72
2019-01-26T22:44:37.622Z,0.80
2019-01-26T22:47:07.829Z,4.77
2019-01-26T22:49:38.847Z,1.85
2019-01-26T22:52:09.613Z,1.05
2019-01-26T22:54:40.579Z,0.65
2019-01-26T22:57:11.337Z,0.75
2019-01-26T22:59:41.702Z,0.80
2019-01-26T23:02:13.476Z,0.60
2019-01-26T23:04:55.885Z,1.10
2019-01-26T23:07:28.854Z,1.10
2019-01-26T23:10:02.105Z,0.50
2019-01-26T23:12:35.402Z,0.57
2019-01-26T23:15:22.810Z,0.93
2019-01-26T23:18:15.437Z,1.00
2019-01-26T23:20:51.285Z,1.07
2019-01-26T23:23:36.398Z,0.93
2019-01-26T23:26:13.174Z,0.85
2019-01-26T23:28:50.091Z,1.12
2019-01-26T23:31:21.530Z,0.95
2019-01-26T23:33:51.954Z,0.87
2019-01-26T23:36:22.333Z,1.00
2019-01-26T23:39:01.982Z,0.73
2019-01-26T23:41:28.515Z,0.85
2019-01-26T23:43:59.531Z,0.95
2019-01-26T23:46:29.742Z,0.77
2019-01-26T23:49:00.371Z,0.80
2019-01-26T23:51:31.578Z,0.90
2019-01-26T23:54:01.878Z,0.80
2019-01-26T23:56:32.092Z,0.77
2019-01-26T23:59:02.326Z,1.20
